Time;durP1;ratioP1;P1;durP2;ratioP2;P2;SDS_P1;SDS_P2;PMS_P1;PMS_P2;Temp;Humidity;BMP_temperature;BMP_pressure;BME280_temperature;BME280_humidity;BME280_pressure;Samples;Min_cycle;Max_cycle;Signal;HPM_P1;HPM_P2
2021/12/04 00:02:11;;;;;;;4.53;2.30;;;;;;;;;;5021124;28;20025;-80
2021/12/04 00:04:44;;;;;;;4.20;2.30;;;;;;;;;;5000182;28;20037;-83
2021/12/04 00:07:10;;;;;;;3.83;2.30;;;;;;;;;;5001472;28;20049;-83
2021/12/04 00:09:36;;;;;;;4.57;2.25;;;;;;;;;;5002145;28;20485;-81
2021/12/04 00:12:04;;;;;;;2.15;1.95;;;;;;;;;;5004379;28;20622;-81
2021/12/04 00:14:30;;;;;;;2.75;2.05;;;;;;;;;;4988774;28;20105;-81
2021/12/04 00:16:56;;;;;;;2.17;1.92;;;;;;;;;;5003961;28;20089;-81
2021/12/04 00:19:23;;;;;;;2.95;2.28;;;;;;;;;;4984492;28;20053;-83
2021/12/04 00:21:48;;;;;;;3.17;2.15;;;;;;;;;;4988512;28;20368;-82
2021/12/04 00:24:14;;;;;;;2.20;2.00;;;;;;;;;;5001207;28;20037;-82
2021/12/04 00:26:40;;;;;;;4.30;2.10;;;;;;;;;;4988631;28;20745;-82
2021/12/04 00:29:05;;;;;;;3.90;2.30;;;;;;;;;;4987162;28;20090;-82
2021/12/04 00:31:31;;;;;;;2.45;2.25;;;;;;;;;;5005841;28;20391;-80
2021/12/04 00:33:57;;;;;;;5.35;2.00;;;;;;;;;;4989416;28;20017;-84
2021/12/04 00:49:54;;;;;;;3.03;2.03;;;;;;;;;;5003250;28;20053;-81
2021/12/04 00:52:19;;;;;;;4.82;2.35;;;;;;;;;;5008452;28;20018;-83
2021/12/04 00:54:45;;;;;;;2.15;1.95;;;;;;;;;;5021082;28;20473;-82
2021/12/04 00:57:12;;;;;;;4.20;2.30;;;;;;;;;;5030263;28;20032;-82
2021/12/04 00:59:38;;;;;;;4.45;2.38;;;;;;;;;;5045091;28;20025;-81
2021/12/04 01:02:04;;;;;;;3.83;2.42;;;;;;;;;;5041517;28;20029;-81
2021/12/04 01:04:30;;;;;;;5.63;2.95;;;;;;;;;;5034151;28;20089;-81
2021/12/04 01:06:55;;;;;;;3.67;2.08;;;;;;;;;;5041309;28;20107;-82
2021/12/04 01:09:23;;;;;;;4.13;2.08;;;;;;;;;;5040225;28;20028;-81
2021/12/04 01:11:50;;;;;;;3.10;2.05;;;;;;;;;;5040017;28;20033;-82
2021/12/04 01:14:18;;;;;;;4.22;2.00;;;;;;;;;;5039728;28;20402;-81
2021/12/04 01:16:44;;;;;;;2.92;2.15;;;;;;;;;;5044411;28;20162;-84
2021/12/04 01:19:09;;;;;;;4.97;1.67;;;;;;;;;;5019030;28;20422;-83
2021/12/04 01:21:35;;;;;;;3.85;2.45;;;;;;;;;;5043652;28;20024;-82
2021/12/04 01:24:01;;;;;;;2.75;1.92;;;;;;;;;;5044077;28;20058;-82
2021/12/04 01:26:26;;;;;;;5.30;2.30;;;;;;;;;;5057025;23;20045;-82
2021/12/04 01:28:52;;;;;;;3.45;1.98;;;;;;;;;;5042659;28;20070;-82
2021/12/04 01:31:18;;;;;;;3.38;2.15;;;;;;;;;;5047764;28;20043;-81
2021/12/04 01:33:43;;;;;;;2.15;1.70;;;;;;;;;;5046220;28;20078;-83
2021/12/04 01:36:09;;;;;;;3.83;2.40;;;;;;;;;;5039862;28;20028;-81
2021/12/04 01:38:36;;;;;;;4.68;2.00;;;;;;;;;;5043960;28;20021;-81
2021/12/04 01:41:02;;;;;;;3.28;2.45;;;;;;;;;;5035891;28;20027;-83
2021/12/04 01:43:27;;;;;;;3.35;2.40;;;;;;;;;;5046480;28;20021;-84
2021/12/04 01:45:54;;;;;;;3.33;1.98;;;;;;;;;;5028382;28;20650;-85
2021/12/04 01:48:19;;;;;;;3.13;2.10;;;;;;;;;;5037524;28;20017;-83
2021/12/04 01:50:45;;;;;;;3.72;2.05;;;;;;;;;;5039001;28;20078;-82
2021/12/04 01:53:10;;;;;;;2.15;1.90;;;;;;;;;;5038061;28;20014;-84
2021/12/04 01:55:42;;;;;;;4.15;1.90;;;;;;;;;;5044999;28;20036;-85
2021/12/04 01:58:07;;;;;;;2.30;2.03;;;;;;;;;;5043239;28;20041;-83
2021/12/04 02:00:37;;;;;;;3.08;1.77;;;;;;;;;;5043487;28;20253;-85
2021/12/04 02:03:04;;;;;;;1.60;1.50;;;;;;;;;;5036337;28;20014;-85
2021/12/04 02:05:31;;;;;;;2.05;1.70;;;;;;;;;;5041136;28;20036;-85
2021/12/04 02:07:58;;;;;;;3.38;2.17;;;;;;;;;;5045656;28;20067;-85
2021/12/04 02:10:23;;;;;;;2.42;2.05;;;;;;;;;;5040770;28;20379;-84
2021/12/04 02:12:49;;;;;;;2.85;2.08;;;;;;;;;;5041801;28;20025;-84
2021/12/04 02:15:16;;;;;;;4.22;2.28;;;;;;;;;;5039881;28;20535;-84
2021/12/04 02:17:45;;;;;;;2.45;1.92;;;;;;;;;;5042899;28;20505;-84
2021/12/04 02:20:16;;;;;;;4.22;2.40;;;;;;;;;;5037118;28;20017;-83
2021/12/04 02:22:41;;;;;;;3.58;2.30;;;;;;;;;;5019330;28;20493;-83
2021/12/04 02:25:09;;;;;;;2.70;2.17;;;;;;;;;;5039904;28;20641;-84
2021/12/04 02:27:36;;;;;;;5.30;2.72;;;;;;;;;;5024299;28;20042;-84
2021/12/04 02:30:09;;;;;;;3.03;2.67;;;;;;;;;;5037729;28;20025;-84
2021/12/04 02:32:34;;;;;;;5.03;2.42;;;;;;;;;;5038464;28;20021;-84
2021/12/04 02:35:00;;;;;;;4.28;2.70;;;;;;;;;;5037794;28;20036;-84
2021/12/04 02:37:25;;;;;;;2.70;2.25;;;;;;;;;;5036672;28;20036;-84
2021/12/04 02:39:57;;;;;;;3.67;2.28;;;;;;;;;;5040960;28;20020;-84
2021/12/04 02:42:23;;;;;;;4.15;2.60;;;;;;;;;;5029014;28;20059;-84
2021/12/04 02:44:49;;;;;;;6.53;2.72;;;;;;;;;;5052021;28;20071;-83
2021/12/04 02:47:15;;;;;;;6.57;2.55;;;;;;;;;;5051272;28;20383;-84
2021/12/04 02:49:41;;;;;;;4.25;2.58;;;;;;;;;;5043384;28;20056;-84
2021/12/04 02:52:09;;;;;;;3.78;2.63;;;;;;;;;;5045772;28;20095;-83
2021/12/04 02:54:35;;;;;;;4.60;2.40;;;;;;;;;;5051004;28;20021;-84
2021/12/04 02:57:02;;;;;;;3.75;2.30;;;;;;;;;;5045487;28;20025;-84
2021/12/04 02:59:28;;;;;;;6.00;2.65;;;;;;;;;;5050589;28;20036;-83
2021/12/04 03:01:55;;;;;;;6.55;2.90;;;;;;;;;;5050694;28;20025;-84
2021/12/04 03:04:23;;;;;;;5.15;3.05;;;;;;;;;;5047499;28;20022;-84
2021/12/04 03:06:49;;;;;;;4.28;2.80;;;;;;;;;;5028133;28;20024;-84
2021/12/04 03:09:16;;;;;;;3.58;2.60;;;;;;;;;;5040757;28;20032;-85
2021/12/04 03:11:42;;;;;;;5.38;2.45;;;;;;;;;;5040303;28;20021;-84
2021/12/04 03:14:08;;;;;;;5.45;3.30;;;;;;;;;;5042871;28;20029;-84
2021/12/04 03:16:36;;;;;;;4.60;2.63;;;;;;;;;;5049629;28;20072;-84
2021/12/04 03:19:03;;;;;;;8.43;3.05;;;;;;;;;;5058890;28;20047;-84
2021/12/04 03:21:28;;;;;;;6.72;3.20;;;;;;;;;;5053734;28;20033;-84
2021/12/04 03:24:00;;;;;;;4.90;3.22;;;;;;;;;;5055517;28;20021;-84
2021/12/04 03:26:26;;;;;;;7.68;2.75;;;;;;;;;;5050644;28;20021;-84
2021/12/04 03:28:53;;;;;;;6.97;3.15;;;;;;;;;;5057662;28;20036;-84
2021/12/04 03:42:03;;;;;;;5.35;3.53;;;;;;;;;;5047363;28;20035;-84
2021/12/04 03:44:30;;;;;;;5.47;3.75;;;;;;;;;;5038570;28;20030;-84
2021/12/04 03:46:56;;;;;;;4.45;3.20;;;;;;;;;;5051436;28;20017;-84
2021/12/04 03:49:21;;;;;;;6.57;3.83;;;;;;;;;;5055869;28;20017;-84
2021/12/04 03:51:46;;;;;;;5.90;3.70;;;;;;;;;;5042061;28;20079;-84
2021/12/04 03:54:12;;;;;;;7.15;4.22;;;;;;;;;;5050566;28;20036;-84
2021/12/04 03:56:37;;;;;;;5.47;4.00;;;;;;;;;;5030122;28;20025;-84
2021/12/04 03:59:03;;;;;;;6.70;4.18;;;;;;;;;;5040034;28;20041;-85
2021/12/04 04:01:29;;;;;;;8.73;4.47;;;;;;;;;;5051045;28;20021;-84
2021/12/04 04:03:54;;;;;;;7.43;5.07;;;;;;;;;;5050415;28;20035;-84
2021/12/04 04:06:20;;;;;;;9.05;5.35;;;;;;;;;;5047735;28;20040;-84
2021/12/04 04:08:46;;;;;;;7.75;5.03;;;;;;;;;;5042993;28;20499;-84
2021/12/04 04:11:11;;;;;;;8.10;4.97;;;;;;;;;;5052662;28;20025;-84
2021/12/04 04:13:41;;;;;;;8.65;5.00;;;;;;;;;;5045760;28;20026;-85
2021/12/04 04:16:06;;;;;;;11.57;5.40;;;;;;;;;;5051809;28;20561;-84
2021/12/04 04:18:32;;;;;;;8.75;5.35;;;;;;;;;;5047627;28;20025;-85
2021/12/04 04:20:58;;;;;;;9.02;5.32;;;;;;;;;;5048145;28;20030;-84
2021/12/04 04:23:24;;;;;;;7.80;5.10;;;;;;;;;;5023235;28;20033;-87
2021/12/04 04:25:49;;;;;;;9.82;5.80;;;;;;;;;;5043913;28;20039;-84
2021/12/04 04:28:14;;;;;;;9.60;5.13;;;;;;;;;;5046706;28;20085;-85
2021/12/04 04:30:40;;;;;;;8.32;5.07;;;;;;;;;;5048427;28;20021;-84
2021/12/04 04:33:06;;;;;;;8.57;4.70;;;;;;;;;;5033183;28;20130;-85
2021/12/04 04:35:33;;;;;;;8.07;5.10;;;;;;;;;;5056551;28;20025;-84
2021/12/04 04:38:45;;;;;;;8.00;4.35;;;;;;;;;;5051611;28;20017;-86
2021/12/04 04:57:42;;;;;;;8.65;5.50;;;;;;;;;;5059491;28;20098;-85
2021/12/04 05:13:39;;;;;;;9.10;4.85;;;;;;;;;;5045330;28;20017;-84
2021/12/04 05:16:16;;;;;;;6.10;4.03;;;;;;;;;;5038441;28;20052;-84
2021/12/04 05:18:52;;;;;;;11.77;5.53;;;;;;;;;;5055331;28;20074;-84
2021/12/04 05:21:18;;;;;;;7.15;4.60;;;;;;;;;;5056333;28;20048;-84
2021/12/04 05:23:50;;;;;;;7.50;4.43;;;;;;;;;;5054799;28;20025;-84
2021/12/04 05:26:25;;;;;;;7.45;5.15;;;;;;;;;;5038249;28;20033;-83
2021/12/04 05:28:52;;;;;;;8.52;4.68;;;;;;;;;;5038093;28;20037;-83
2021/12/04 05:31:20;;;;;;;7.90;4.80;;;;;;;;;;5055965;28;20070;-85
2021/12/04 05:33:46;;;;;;;6.85;4.32;;;;;;;;;;5052608;28;20539;-84
2021/12/04 05:36:11;;;;;;;6.68;4.78;;;;;;;;;;5039217;28;20044;-84
2021/12/04 05:38:37;;;;;;;10.55;4.65;;;;;;;;;;5055963;28;20040;-84
2021/12/04 05:41:04;;;;;;;8.32;5.13;;;;;;;;;;5055671;28;20039;-84
2021/12/04 05:43:30;;;;;;;9.82;5.05;;;;;;;;;;5055307;28;20033;-84
2021/12/04 05:46:10;;;;;;;9.55;5.18;;;;;;;;;;5056134;28;20032;-84
2021/12/04 05:54:06;;;;;;;7.43;5.13;;;;;;;;;;5051632;28;20080;-84
2021/12/04 05:56:34;;;;;;;5.75;4.30;;;;;;;;;;5054319;28;20028;-84
2021/12/04 05:59:00;;;;;;;8.32;5.20;;;;;;;;;;5053291;28;20062;-85
2021/12/04 06:01:27;;;;;;;9.02;4.95;;;;;;;;;;5055938;28;20021;-85
2021/12/04 06:03:52;;;;;;;7.63;4.15;;;;;;;;;;5056178;28;20036;-84
2021/12/04 06:06:17;;;;;;;8.68;5.00;;;;;;;;;;5055318;28;20029;-84
2021/12/04 06:08:43;;;;;;;7.80;4.40;;;;;;;;;;5055562;28;20032;-84
2021/12/04 06:11:09;;;;;;;8.95;4.97;;;;;;;;;;5056284;28;20028;-83
2021/12/04 06:13:34;;;;;;;6.35;4.50;;;;;;;;;;5055010;28;20099;-84
2021/12/04 06:16:00;;;;;;;8.30;4.50;;;;;;;;;;5056152;28;20047;-84
2021/12/04 06:18:26;;;;;;;6.57;4.07;;;;;;;;;;5056135;28;20036;-84
2021/12/04 06:23:35;;;;;;;7.45;4.35;;;;;;;;;;5055873;28;20040;-84
2021/12/04 06:26:01;;;;;;;9.45;4.50;;;;;;;;;;5056127;28;20395;-82
2021/12/04 06:28:27;;;;;;;7.07;4.45;;;;;;;;;;5037719;28;20028;-83
2021/12/04 06:30:54;;;;;;;7.18;4.47;;;;;;;;;;5053213;28;20029;-84
2021/12/04 06:33:21;;;;;;;7.22;4.07;;;;;;;;;;5053771;28;20028;-83
2021/12/04 06:35:47;;;;;;;7.80;4.80;;;;;;;;;;5055724;28;20028;-85
2021/12/04 06:38:15;;;;;;;10.40;5.28;;;;;;;;;;5056874;28;20368;-84
2021/12/04 06:40:41;;;;;;;7.22;5.05;;;;;;;;;;5056037;28;20017;-85
2021/12/04 06:43:08;;;;;;;8.75;5.03;;;;;;;;;;5047574;28;20029;-83
2021/12/04 06:45:37;;;;;;;7.07;4.50;;;;;;;;;;5047491;28;20100;-84
2021/12/04 06:48:15;;;;;;;7.45;4.80;;;;;;;;;;5055318;28;20044;-84
2021/12/04 06:50:44;;;;;;;8.05;4.38;;;;;;;;;;5057651;28;20395;-82
2021/12/04 06:53:28;;;;;;;10.05;5.03;;;;;;;;;;5041983;28;20029;-84
2021/12/04 06:55:55;;;;;;;8.45;5.38;;;;;;;;;;5059741;28;20029;-84
2021/12/04 06:58:23;;;;;;;7.40;4.55;;;;;;;;;;5059974;28;20398;-84
2021/12/04 07:00:48;;;;;;;7.93;4.90;;;;;;;;;;5060049;28;20025;-83
2021/12/04 07:03:13;;;;;;;7.97;4.85;;;;;;;;;;5059631;28;20028;-84
2021/12/04 07:05:39;;;;;;;7.07;4.55;;;;;;;;;;5059916;28;20025;-84
2021/12/04 07:08:07;;;;;;;9.38;4.38;;;;;;;;;;5060545;28;20025;-84
2021/12/04 07:10:34;;;;;;;7.75;4.80;;;;;;;;;;5060422;28;20541;-83
2021/12/04 07:13:00;;;;;;;9.05;4.63;;;;;;;;;;5022488;28;20025;-86
2021/12/04 07:15:29;;;;;;;8.82;4.97;;;;;;;;;;5056296;28;20096;-85
2021/12/04 07:17:54;;;;;;;8.68;5.07;;;;;;;;;;5042011;28;20025;-84
2021/12/04 07:20:19;;;;;;;7.95;4.95;;;;;;;;;;5059611;28;20041;-83
2021/12/04 07:22:45;;;;;;;5.70;3.72;;;;;;;;;;5060335;28;20112;-83
2021/12/04 07:25:11;;;;;;;7.18;4.47;;;;;;;;;;5060196;28;20029;-84
2021/12/04 07:27:36;;;;;;;6.97;4.85;;;;;;;;;;5042159;28;20033;-84
2021/12/04 07:30:04;;;;;;;7.47;4.55;;;;;;;;;;5059201;28;20025;-84
2021/12/04 07:32:29;;;;;;;7.78;5.15;;;;;;;;;;5060043;28;20040;-84
2021/12/04 07:34:55;;;;;;;9.52;5.03;;;;;;;;;;5055171;28;20024;-84
2021/12/04 07:37:21;;;;;;;9.60;4.95;;;;;;;;;;5059861;28;20059;-84
2021/12/04 07:39:46;;;;;;;6.78;4.70;;;;;;;;;;5059941;28;20025;-83
2021/12/04 07:42:11;;;;;;;7.13;4.75;;;;;;;;;;5042187;28;20024;-84
2021/12/04 07:44:37;;;;;;;10.70;5.20;;;;;;;;;;5059872;28;20108;-84
2021/12/04 07:47:02;;;;;;;6.22;4.32;;;;;;;;;;5060751;28;20025;-82
2021/12/04 07:49:28;;;;;;;7.95;4.68;;;;;;;;;;5055446;28;20029;-84
2021/12/04 07:51:53;;;;;;;5.15;4.18;;;;;;;;;;5043721;28;20028;-84
2021/12/04 07:54:19;;;;;;;7.00;4.60;;;;;;;;;;5061369;28;20028;-83
2021/12/04 07:56:45;;;;;;;6.22;4.20;;;;;;;;;;5060685;28;20052;-85
2021/12/04 07:59:10;;;;;;;6.68;4.72;;;;;;;;;;5051727;28;20437;-84
2021/12/04 08:01:36;;;;;;;9.88;4.43;;;;;;;;;;5059500;28;20017;-84
2021/12/04 08:04:02;;;;;;;7.97;4.43;;;;;;;;;;5044323;28;20033;-84
2021/12/04 08:06:28;;;;;;;6.43;4.30;;;;;;;;;;5042329;28;20602;-83
2021/12/04 08:08:58;;;;;;;6.93;4.47;;;;;;;;;;5042990;28;20029;-83
2021/12/04 08:11:24;;;;;;;5.70;4.38;;;;;;;;;;5060803;28;20024;-83
2021/12/04 08:13:50;;;;;;;9.15;4.20;;;;;;;;;;5058704;28;20108;-83
2021/12/04 08:16:15;;;;;;;6.50;3.92;;;;;;;;;;5059927;28;20045;-84
2021/12/04 08:18:41;;;;;;;5.15;3.95;;;;;;;;;;5042955;28;20082;-86
2021/12/04 08:21:06;;;;;;;6.22;3.80;;;;;;;;;;5042186;28;20029;-84
2021/12/04 08:23:31;;;;;;;7.15;4.10;;;;;;;;;;5041911;28;20029;-85
2021/12/04 08:25:57;;;;;;;6.43;4.05;;;;;;;;;;5044294;28;20032;-85
2021/12/04 08:28:23;;;;;;;9.18;4.50;;;;;;;;;;5042512;28;20055;-84
2021/12/04 08:30:50;;;;;;;5.80;3.90;;;;;;;;;;5032696;28;20056;-84
2021/12/04 08:33:16;;;;;;;8.07;3.40;;;;;;;;;;5042588;28;20020;-83
2021/12/04 08:35:42;;;;;;;5.03;2.53;;;;;;;;;;5040271;28;20493;-82
2021/12/04 08:38:10;;;;;;;3.42;2.20;;;;;;;;;;5059745;28;20032;-84
2021/12/04 08:40:38;;;;;;;4.57;2.17;;;;;;;;;;5041537;28;20491;-84
2021/12/04 08:43:04;;;;;;;3.30;2.65;;;;;;;;;;5059289;28;20115;-84
2021/12/04 08:45:30;;;;;;;3.15;2.28;;;;;;;;;;5057887;28;20040;-83
2021/12/04 08:47:56;;;;;;;2.85;2.30;;;;;;;;;;5060282;28;20040;-84
2021/12/04 08:50:25;;;;;;;4.25;2.40;;;;;;;;;;5043257;28;20119;-83
2021/12/04 08:52:51;;;;;;;3.88;2.30;;;;;;;;;;5060938;28;20025;-83
2021/12/04 08:55:19;;;;;;;3.15;2.17;;;;;;;;;;5058514;28;20093;-83
2021/12/04 08:57:45;;;;;;;3.83;2.10;;;;;;;;;;5047180;28;20013;-85
2021/12/04 09:00:15;;;;;;;3.58;2.13;;;;;;;;;;5043544;28;20076;-85
2021/12/04 09:02:41;;;;;;;3.17;2.22;;;;;;;;;;5032836;28;20048;-85
2021/12/04 09:05:09;;;;;;;4.95;2.45;;;;;;;;;;5040621;28;20029;-85
2021/12/04 09:07:34;;;;;;;3.17;2.22;;;;;;;;;;5043713;28;20501;-84
2021/12/04 09:09:59;;;;;;;5.25;2.55;;;;;;;;;;5062448;28;20021;-84
2021/12/04 09:12:28;;;;;;;5.40;2.75;;;;;;;;;;5062037;28;20025;-83
2021/12/04 09:14:56;;;;;;;4.03;2.55;;;;;;;;;;5058586;28;20021;-84
2021/12/04 09:17:22;;;;;;;6.40;2.85;;;;;;;;;;5061964;28;20024;-83
2021/12/04 09:19:49;;;;;;;3.88;2.80;;;;;;;;;;5044943;28;20025;-85
2021/12/04 09:22:25;;;;;;;3.90;2.72;;;;;;;;;;5060367;28;20025;-84
2021/12/04 09:24:55;;;;;;;3.83;2.60;;;;;;;;;;5058650;28;20049;-85
2021/12/04 09:30:16;;;;;;;4.68;3.00;;;;;;;;;;5062235;28;20031;-84
2021/12/04 09:35:55;;;;;;;6.35;3.10;;;;;;;;;;5053648;28;20441;-84
2021/12/04 10:00:13;;;;;;;3.20;1.67;;;;;;;;;;5057366;28;20105;-83
2021/12/04 10:03:35;;;;;;;3.30;2.00;;;;;;;;;;5056373;28;20033;-84
2021/12/04 10:19:33;;;;;;;5.35;2.60;;;;;;;;;;5057331;28;20033;-84
2021/12/04 10:22:32;;;;;;;6.78;3.00;;;;;;;;;;5056975;28;20107;-85
2021/12/04 10:32:02;;;;;;;2.15;1.80;;;;;;;;;;5056828;28;20041;-84
2021/12/04 10:33:45;;;;;;;1.08;1.00;;;;;;;;;;5053428;28;20027;-84
2021/12/04 10:36:12;;;;;;;1.63;1.05;;;;;;;;;;5059385;28;20025;-84
2021/12/04 10:38:44;;;;;;;1.67;1.20;;;;;;;;;;5060240;28;20028;-85
2021/12/04 10:41:26;;;;;;;1.48;1.30;;;;;;;;;;5042049;28;20055;-85
2021/12/04 10:43:52;;;;;;;1.70;1.20;;;;;;;;;;5059830;28;20082;-84
2021/12/04 10:46:19;;;;;;;2.65;1.25;;;;;;;;;;5060632;28;20057;-84
2021/12/04 10:48:53;;;;;;;0.93;0.93;;;;;;;;;;5059675;28;20049;-84
2021/12/04 10:51:30;;;;;;;2.08;1.30;;;;;;;;;;5060224;28;20507;-82
2021/12/04 10:54:03;;;;;;;1.08;1.00;;;;;;;;;;5042122;28;20119;-84
2021/12/04 10:59:14;;;;;;;2.08;1.30;;;;;;;;;;5060032;28;20462;-83
2021/12/04 11:04:38;;;;;;;2.55;1.25;;;;;;;;;;5051091;28;20021;-84
2021/12/04 11:35:22;;;;;;;1.25;0.80;;;;;;;;;;5055759;28;20024;-84
2021/12/04 11:42:54;;;;;;;1.27;1.00;;;;;;;;;;5058899;28;20090;-83
2021/12/04 11:45:28;;;;;;;3.00;1.27;;;;;;;;;;5057642;28;20028;-84
2021/12/04 11:48:00;;;;;;;2.40;1.45;;;;;;;;;;5041387;28;20053;-84
2021/12/04 11:50:33;;;;;;;2.63;1.55;;;;;;;;;;5055793;28;20091;-84
2021/12/04 11:53:11;;;;;;;0.80;0.80;;;;;;;;;;5058019;28;20086;-83
2021/12/04 11:55:40;;;;;;;1.60;1.27;;;;;;;;;;5058468;28;20036;-86
2021/12/04 11:58:31;;;;;;;2.20;1.30;;;;;;;;;;5059641;28;20021;-84
2021/12/04 12:01:09;;;;;;;1.05;0.88;;;;;;;;;;5045824;28;20017;-85
2021/12/04 12:03:36;;;;;;;1.17;0.90;;;;;;;;;;5055034;28;20029;-89
2021/12/04 12:06:10;;;;;;;1.15;0.90;;;;;;;;;;5055003;28;20467;-83
2021/12/04 12:08:42;;;;;;;0.60;0.60;;;;;;;;;;5039464;28;20029;-85
2021/12/04 12:11:20;;;;;;;2.83;0.57;;;;;;;;;;5037567;28;20522;-83
2021/12/04 12:14:08;;;;;;;2.60;0.93;;;;;;;;;;5055937;28;20036;-84
2021/12/04 12:16:39;;;;;;;1.15;1.05;;;;;;;;;;5034165;28;20013;-85
2021/12/04 12:19:25;;;;;;;1.13;1.13;;;;;;;;;;5041318;28;20059;-85
2021/12/04 12:21:57;;;;;;;0.40;0.40;;;;;;;;;;5039951;28;20021;-83
2021/12/04 12:36:15;;;;;;;1.80;0.98;;;;;;;;;;5024170;28;20123;-84
2021/12/04 12:38:50;;;;;;;;;;;;;;;;;;5054195;28;20453;-84
2021/12/04 12:41:43;;;;;;;1.02;0.80;;;;;;;;;;5040689;28;19908;-83
2021/12/04 12:44:27;;;;;;;0.70;0.70;;;;;;;;;;5039802;28;20479;-86
2021/12/04 12:47:00;;;;;;;1.02;0.98;;;;;;;;;;5042907;28;20037;-84
2021/12/04 12:49:39;;;;;;;0.80;0.80;;;;;;;;;;5055703;28;20067;-85
2021/12/04 12:52:10;;;;;;;0.75;0.73;;;;;;;;;;5061018;28;20108;-85
2021/12/04 12:54:54;;;;;;;1.90;1.05;;;;;;;;;;5041275;28;20416;-87
2021/12/04 12:57:35;;;;;;;0.80;0.80;;;;;;;;;;5059205;28;20025;-86
2021/12/04 13:11:57;;;;;;;1.92;1.00;;;;;;;;;;5037758;28;20083;-85
2021/12/04 13:14:31;;;;;;;0.70;0.70;;;;;;;;;;5042721;28;20535;-85
2021/12/04 13:17:10;;;;;;;2.45;1.10;;;;;;;;;;5048866;28;20025;-85
2021/12/04 13:19:38;;;;;;;1.02;0.90;;;;;;;;;;5057884;28;20048;-84
2021/12/04 13:22:17;;;;;;;3.50;0.80;;;;;;;;;;5040809;28;20182;-83
2021/12/04 13:24:45;;;;;;;0.75;0.73;;;;;;;;;;5059027;28;20108;-84
2021/12/04 13:29:50;;;;;;;0.70;0.70;;;;;;;;;;5057677;28;20107;-85
2021/12/04 13:32:18;;;;;;;0.70;0.70;;;;;;;;;;5054035;28;20021;-81
2021/12/04 13:34:44;;;;;;;0.60;0.60;;;;;;;;;;5048177;28;20104;-84
2021/12/04 13:37:12;;;;;;;0.70;0.70;;;;;;;;;;5033314;28;20044;-83
2021/12/04 13:39:39;;;;;;;0.60;0.60;;;;;;;;;;5053818;28;20075;-85
2021/12/04 13:42:09;;;;;;;1.15;0.75;;;;;;;;;;5056231;28;20028;-86
2021/12/04 13:44:37;;;;;;;2.28;0.93;;;;;;;;;;5039003;28;20017;-86
2021/12/04 13:47:06;;;;;;;0.60;0.60;;;;;;;;;;5036753;28;20021;-88
2021/12/04 13:49:40;;;;;;;1.40;0.60;;;;;;;;;;5053880;28;20085;-85
2021/12/04 13:52:11;;;;;;;0.57;0.57;;;;;;;;;;5035138;28;20083;-86
2021/12/04 13:54:50;;;;;;;1.90;0.90;;;;;;;;;;5034937;28;20017;-87
2021/12/04 13:57:24;;;;;;;0.90;0.70;;;;;;;;;;5043920;28;20258;-87
2021/12/04 13:59:58;;;;;;;1.08;0.95;;;;;;;;;;5050832;28;20043;-88
2021/12/04 14:06:17;;;;;;;2.55;1.20;;;;;;;;;;4984511;28;20061;-88
2021/12/04 14:09:44;;;;;;;1.27;0.70;;;;;;;;;;4980713;28;20037;-87
2021/12/04 14:12:10;;;;;;;0.73;0.73;;;;;;;;;;4973148;28;20120;-87
2021/12/04 14:14:36;;;;;;;0.80;0.80;;;;;;;;;;5024496;28;20037;-89
2021/12/04 14:17:09;;;;;;;1.13;0.90;;;;;;;;;;5055177;28;20021;-88
2021/12/04 14:19:35;;;;;;;1.10;1.00;;;;;;;;;;5047824;28;20017;-87
2021/12/04 14:22:20;;;;;;;1.80;1.13;;;;;;;;;;5037808;28;20025;-88
2021/12/04 14:24:57;;;;;;;1.75;1.52;;;;;;;;;;5021566;28;20372;-86
2021/12/04 14:27:30;;;;;;;3.00;1.10;;;;;;;;;;5038006;28;20186;-86
2021/12/04 14:30:00;;;;;;;5.53;3.38;;;;;;;;;;5056702;28;20713;-87
2021/12/04 14:32:29;;;;;;;7.43;3.45;;;;;;;;;;5041668;28;20021;-86
2021/12/04 14:35:01;;;;;;;1.15;1.10;;;;;;;;;;5061354;28;20016;-85
2021/12/04 14:37:27;;;;;;;1.60;1.00;;;;;;;;;;5040147;28;20025;-87
2021/12/04 14:39:54;;;;;;;2.35;1.30;;;;;;;;;;5054929;28;20414;-87
2021/12/04 14:42:25;;;;;;;1.75;1.40;;;;;;;;;;5029062;28;20610;-90
2021/12/04 14:44:54;;;;;;;1.33;1.17;;;;;;;;;;5040691;28;20025;-86
2021/12/04 14:47:22;;;;;;;1.30;1.20;;;;;;;;;;5050985;28;20037;-86
2021/12/04 14:50:00;;;;;;;2.42;1.23;;;;;;;;;;5055848;28;20037;-84
2021/12/04 14:52:31;;;;;;;1.92;1.55;;;;;;;;;;5023347;28;20055;-85
2021/12/04 14:54:57;;;;;;;4.70;2.20;;;;;;;;;;5037120;28;20044;-86
2021/12/04 14:57:26;;;;;;;2.35;1.70;;;;;;;;;;5054571;28;20051;-86
2021/12/04 15:00:05;;;;;;;2.95;2.10;;;;;;;;;;5036761;28;20394;-86
2021/12/04 15:03:08;;;;;;;3.42;2.28;;;;;;;;;;5053983;28;20104;-85
2021/12/04 15:05:55;;;;;;;6.03;2.22;;;;;;;;;;5049785;28;20473;-87
2021/12/04 15:08:26;;;;;;;4.45;2.22;;;;;;;;;;5040057;28;20027;-87
2021/12/04 15:11:04;;;;;;;2.72;1.90;;;;;;;;;;5054955;28;20037;-87
2021/12/04 15:13:34;;;;;;;2.22;1.52;;;;;;;;;;5048585;28;20033;-85
2021/12/04 15:16:07;;;;;;;3.45;2.15;;;;;;;;;;5040710;28;20029;-86
2021/12/04 15:18:36;;;;;;;2.78;1.83;;;;;;;;;;5040877;28;20190;-86
2021/12/04 15:21:11;;;;;;;3.67;1.80;;;;;;;;;;5040126;28;20115;-86
2021/12/04 15:23:39;;;;;;;2.95;1.75;;;;;;;;;;5053181;28;20037;-86
2021/12/04 15:26:20;;;;;;;2.70;1.77;;;;;;;;;;5057436;28;20063;-85
2021/12/04 15:28:54;;;;;;;2.00;1.40;;;;;;;;;;5041395;28;20025;-86
2021/12/04 15:31:22;;;;;;;2.10;1.50;;;;;;;;;;5050776;28;20029;-85
2021/12/04 15:33:51;;;;;;;2.33;1.50;;;;;;;;;;5045305;28;20036;-85
2021/12/04 15:36:28;;;;;;;2.38;1.65;;;;;;;;;;5057246;28;20183;-86
2021/12/04 15:38:57;;;;;;;2.35;1.95;;;;;;;;;;5057954;28;20024;-86
2021/12/04 15:42:09;;;;;;;2.20;1.60;;;;;;;;;;5052509;28;20475;-86
2021/12/04 15:44:46;;;;;;;2.70;2.43;;;;;;;;;;5052516;28;20033;-86
2021/12/04 15:47:23;;;;;;;3.58;2.28;;;;;;;;;;5057662;28;20056;-87
2021/12/04 15:50:08;;;;;;;3.75;2.10;;;;;;;;;;5058926;28;20070;-86
2021/12/04 15:52:56;;;;;;;1.83;1.15;;;;;;;;;;5040245;28;20092;-86
2021/12/04 15:55:27;;;;;;;3.13;1.50;;;;;;;;;;5058409;28;20027;-86
2021/12/04 15:57:58;;;;;;;2.60;1.92;;;;;;;;;;5053899;28;20032;-86
2021/12/04 16:00:27;;;;;;;1.60;1.50;;;;;;;;;;5057781;28;20564;-86
2021/12/04 16:02:56;;;;;;;1.95;1.70;;;;;;;;;;5058315;28;20498;-86
2021/12/04 16:05:25;;;;;;;2.13;1.50;;;;;;;;;;5053279;28;20024;-86
2021/12/04 16:08:06;;;;;;;1.45;1.35;;;;;;;;;;5054190;28;20017;-86
2021/12/04 16:10:35;;;;;;;1.13;1.00;;;;;;;;;;5039169;28;20535;-88
2021/12/04 16:13:01;;;;;;;2.15;1.30;;;;;;;;;;5038329;28;20068;-84
2021/12/04 16:15:28;;;;;;;1.30;1.20;;;;;;;;;;5027869;28;20042;-87
2021/12/04 16:18:07;;;;;;;1.85;1.42;;;;;;;;;;5059237;28;20078;-85
2021/12/04 16:20:34;;;;;;;2.30;1.73;;;;;;;;;;5035957;28;20113;-85
2021/12/04 16:26:39;;;;;;;2.50;1.23;;;;;;;;;;5050624;28;20063;-89
2021/12/04 16:29:51;;;;;;;1.27;1.15;;;;;;;;;;5052267;28;20032;-86
2021/12/04 16:33:00;;;;;;;2.25;1.30;;;;;;;;;;5056445;28;20542;-87
2021/12/04 16:35:40;;;;;;;1.20;1.10;;;;;;;;;;5038550;28;20029;-88
2021/12/04 16:38:12;;;;;;;2.40;1.75;;;;;;;;;;5052269;28;20032;-87
2021/12/04 16:44:44;;;;;;;1.90;1.73;;;;;;;;;;5054961;28;20031;-86
2021/12/04 16:47:10;;;;;;;2.53;1.20;;;;;;;;;;5053981;28;20029;-84
2021/12/04 16:49:36;;;;;;;1.50;1.30;;;;;;;;;;5049761;28;20023;-85
2021/12/04 16:55:19;;;;;;;1.90;1.50;;;;;;;;;;5056544;28;20028;-85
2021/12/04 16:57:57;;;;;;;1.42;1.30;;;;;;;;;;5035324;28;20025;-85
2021/12/04 17:00:24;;;;;;;1.23;1.13;;;;;;;;;;5037751;28;20537;-87
2021/12/04 17:02:50;;;;;;;2.03;1.40;;;;;;;;;;5037621;28;20040;-86
2021/12/04 17:05:16;;;;;;;2.25;1.60;;;;;;;;;;5057786;28;20025;-84
2021/12/04 17:07:42;;;;;;;2.78;1.75;;;;;;;;;;5062017;28;20024;-86
2021/12/04 17:10:09;;;;;;;2.30;1.65;;;;;;;;;;5061924;28;20068;-87
2021/12/04 17:12:37;;;;;;;1.30;1.20;;;;;;;;;;5058722;28;20498;-84
2021/12/04 17:15:07;;;;;;;1.23;1.10;;;;;;;;;;5058855;28;20025;-85
2021/12/04 17:17:40;;;;;;;1.08;1.08;;;;;;;;;;5055499;28;20029;-83
2021/12/04 17:20:06;;;;;;;0.93;0.90;;;;;;;;;;5060251;28;20020;-86
2021/12/04 17:22:32;;;;;;;1.10;0.93;;;;;;;;;;5054647;28;20045;-86
2021/12/04 17:24:58;;;;;;;1.08;0.90;;;;;;;;;;5054211;28;20028;-84
2021/12/04 17:27:23;;;;;;;0.90;0.90;;;;;;;;;;5047359;28;20028;-83
2021/12/04 17:29:51;;;;;;;1.45;0.98;;;;;;;;;;5039530;28;20048;-84
2021/12/04 17:32:22;;;;;;;0.80;0.80;;;;;;;;;;5062324;28;20104;-87
2021/12/04 17:34:49;;;;;;;1.05;0.80;;;;;;;;;;5050254;28;20039;-83
2021/12/04 17:37:15;;;;;;;2.72;1.20;;;;;;;;;;5032929;28;20029;-85
2021/12/04 17:39:41;;;;;;;9.93;1.48;;;;;;;;;;5041275;28;20039;-83
2021/12/04 17:42:07;;;;;;;1.80;1.50;;;;;;;;;;5050936;28;20040;-84
2021/12/04 17:44:32;;;;;;;1.65;1.55;;;;;;;;;;5045683;28;20025;-85
2021/12/04 17:46:58;;;;;;;1.95;1.73;;;;;;;;;;5046374;28;20021;-85
2021/12/04 17:49:25;;;;;;;1.92;1.83;;;;;;;;;;5021446;28;20048;-86
2021/12/04 17:51:52;;;;;;;3.45;1.73;;;;;;;;;;5039901;28;20057;-86
2021/12/04 17:54:19;;;;;;;1.23;1.08;;;;;;;;;;5038165;28;20116;-87
2021/12/04 17:56:50;;;;;;;1.27;0.93;;;;;;;;;;5052949;28;20025;-87
2021/12/04 17:59:17;;;;;;;0.77;0.77;;;;;;;;;;5022732;28;20037;-86
2021/12/04 18:01:49;;;;;;;0.50;0.50;;;;;;;;;;5049615;28;20045;-87
2021/12/04 18:04:18;;;;;;;0.85;0.68;;;;;;;;;;5051373;28;20072;-87
2021/12/04 18:06:44;;;;;;;0.47;0.47;;;;;;;;;;5053477;28;20040;-86
2021/12/04 18:09:13;;;;;;;1.00;1.00;;;;;;;;;;5038981;28;20029;-85